createdAt,value
2022-10-11T00:00:54.665Z,0.59
2022-10-11T00:01:55.618Z,0.58
2022-10-11T00:02:57.448Z,0.57
2022-10-11T00:03:58.600Z,0.42
2022-10-11T00:05:00.641Z,0.38
2022-10-11T00:06:02.983Z,0.26
2022-10-11T00:07:04.589Z,0.31
2022-10-11T00:08:06.559Z,0.33
2022-10-11T00:09:07.442Z,0.47
2022-10-11T00:10:08.601Z,0.67
2022-10-11T00:11:10.638Z,0.6
2022-10-11T00:12:12.607Z,0.34
2022-10-11T00:13:14.987Z,0.39
2022-10-11T00:14:16.639Z,0.77
2022-10-11T00:15:18.459Z,0.52
2022-10-11T00:16:19.503Z,0.63
2022-10-11T00:17:20.441Z,0.34
2022-10-11T00:18:21.424Z,0.5
2022-10-11T00:19:22.438Z,0.23
2022-10-11T00:20:23.479Z,0.27
2022-10-11T00:21:24.545Z,0.43
2022-10-11T00:22:25.549Z,0.54
2022-10-11T00:23:26.498Z,0.5
2022-10-11T00:24:27.522Z,0.77
2022-10-11T00:25:28.439Z,0.82
2022-10-11T00:26:29.440Z,0.41
2022-10-11T00:27:30.479Z,0.46
2022-10-11T00:28:31.525Z,0.49
2022-10-11T00:29:32.459Z,0.57
2022-10-11T00:30:33.497Z,0.62
2022-10-11T00:31:35.736Z,0.74
2022-10-11T00:32:35.569Z,0.87
2022-10-11T00:33:36.548Z,0.42
2022-10-11T00:34:37.602Z,0.29
2022-10-11T00:35:39.478Z,0.39
2022-10-11T00:36:40.559Z,0.29
2022-10-11T00:37:41.659Z,0.15
2022-10-11T00:38:43.538Z,0.26
2022-10-11T00:39:45.739Z,0
2022-10-11T00:40:47.521Z,0
2022-10-11T00:41:48.540Z,0
2022-10-11T00:42:49.538Z,0
2022-10-11T00:43:50.559Z,0
2022-10-11T00:44:51.539Z,0
2022-10-11T00:45:52.539Z,0
2022-10-11T00:46:55.812Z,0
2022-10-11T00:47:54.517Z,0
2022-10-11T00:48:55.523Z,0.15
2022-10-11T00:49:56.566Z,0.07
2022-10-11T00:50:57.570Z,0.17
2022-10-11T00:51:58.539Z,0
2022-10-11T00:52:59.459Z,0
2022-10-11T00:54:00.539Z,0
2022-10-11T00:55:01.718Z,0
2022-10-11T00:56:03.837Z,0.11
2022-10-11T00:57:04.578Z,0.17
2022-10-11T00:58:05.619Z,0
2022-10-11T00:59:07.598Z,0.14
2022-10-11T01:00:09.584Z,0
2022-10-11T01:01:10.662Z,0
2022-10-11T01:02:12.666Z,0
2022-10-11T01:03:14.639Z,0
2022-10-11T01:04:16.662Z,0
2022-10-11T01:05:29.001Z,0
2022-10-11T01:06:20.639Z,0
2022-10-11T01:07:22.719Z,0
2022-10-11T01:08:24.629Z,0
2022-10-11T01:09:26.539Z,0
2022-10-11T01:10:27.604Z,0
2022-10-11T01:11:28.539Z,0
2022-10-11T01:12:29.519Z,0
2022-10-11T01:13:30.459Z,0
2022-10-11T01:14:31.542Z,0
2022-10-11T01:15:32.518Z,0.27
2022-10-11T01:16:33.539Z,0.48
2022-10-11T01:17:34.604Z,0.16
2022-10-11T01:18:35.539Z,0.09
2022-10-11T01:19:36.543Z,0.17
2022-10-11T01:20:37.538Z,0.22
2022-10-11T01:21:38.599Z,0.08
2022-10-11T01:22:40.500Z,0.23
2022-10-11T01:23:41.559Z,0.16
2022-10-11T01:24:42.578Z,0.55
2022-10-11T01:25:43.739Z,0.54
2022-10-11T01:26:45.727Z,0.51
2022-10-11T01:27:47.478Z,0.56
2022-10-11T01:28:48.563Z,0.46
2022-10-11T01:29:49.459Z,0.26
2022-10-11T01:30:50.539Z,0.36
2022-10-11T01:31:51.539Z,0.38
2022-10-11T01:32:52.623Z,0.12
2022-10-11T01:33:53.479Z,0.29
2022-10-11T01:34:54.429Z,0.15
2022-10-11T01:35:55.547Z,0.21
2022-10-11T01:36:56.524Z,0
2022-10-11T01:37:57.505Z,0
2022-10-11T01:38:58.758Z,0
2022-10-11T01:40:00.679Z,0
2022-10-11T01:41:02.528Z,0
2022-10-11T01:42:03.578Z,0
2022-10-11T01:43:04.609Z,0
2022-10-11T01:44:06.720Z,0
2022-10-11T01:45:08.747Z,0
2022-10-11T01:46:10.720Z,0
2022-10-11T01:47:12.599Z,0
2022-10-11T01:48:14.646Z,0
2022-10-11T01:49:16.839Z,0
2022-10-11T01:50:18.699Z,0
2022-10-11T01:51:20.519Z,0
2022-10-11T01:52:21.580Z,0
2022-10-11T01:53:22.539Z,0
2022-10-11T01:54:23.632Z,0
2022-10-11T01:55:24.648Z,0
2022-10-11T01:56:26.561Z,0
2022-10-11T01:57:27.516Z,0
2022-10-11T01:58:28.563Z,0
2022-10-11T01:59:30.739Z,0
2022-10-11T02:03:51.591Z,0
2022-10-11T02:04:52.617Z,0
2022-10-11T02:05:54.523Z,0
2022-10-11T02:06:55.507Z,0
2022-10-11T02:07:56.522Z,0
2022-10-11T02:08:57.614Z,0
2022-10-11T02:09:59.696Z,0
2022-10-11T02:11:01.596Z,0
2022-10-11T02:12:02.627Z,0
2022-10-11T02:13:04.517Z,0
2022-10-11T02:14:05.675Z,0
2022-10-11T02:15:07.615Z,0
2022-10-11T02:16:08.907Z,0
2022-10-11T02:17:09.535Z,0
2022-10-11T02:18:10.555Z,0
2022-10-11T02:19:11.600Z,0
2022-10-11T02:20:12.575Z,0
2022-10-11T02:21:13.475Z,0
2022-10-11T02:22:14.514Z,0
2022-10-11T02:23:16.195Z,0
2022-10-11T02:24:17.495Z,0
2022-10-11T02:25:18.634Z,0
2022-10-11T02:26:19.475Z,0
2022-10-11T02:27:20.554Z,0
2022-10-11T02:28:21.749Z,0
2022-10-11T02:29:22.574Z,0
2022-10-11T02:30:23.782Z,0
2022-10-11T02:31:25.715Z,0
2022-10-11T02:32:27.494Z,0
2022-10-11T02:33:28.602Z,0
2022-10-11T02:34:30.659Z,0
2022-10-11T02:35:32.576Z,0
2022-10-11T02:36:34.585Z,0
2022-10-11T02:37:35.556Z,0
2022-10-11T02:38:36.575Z,0
2022-10-11T02:39:37.615Z,0
2022-10-11T02:40:38.534Z,0
2022-10-11T02:41:39.555Z,0
2022-10-11T02:42:40.523Z,0
2022-10-11T02:43:41.558Z,0
2022-10-11T02:44:42.554Z,0
2022-10-11T02:45:43.657Z,0
2022-10-11T02:46:44.534Z,0
2022-10-11T02:47:45.555Z,0
2022-10-11T02:48:46.594Z,0
2022-10-11T02:49:47.621Z,0
2022-10-11T02:50:48.580Z,0
2022-10-11T02:51:49.681Z,0
2022-10-11T02:52:51.635Z,0
2022-10-11T02:53:52.683Z,0
2022-10-11T02:54:54.675Z,0
2022-10-11T02:55:56.654Z,0
2022-10-11T02:56:57.475Z,0.22
2022-10-11T02:57:58.634Z,0
2022-10-11T02:59:00.673Z,0
2022-10-11T03:00:02.814Z,0
2022-10-11T03:01:04.717Z,0
2022-10-11T03:02:06.853Z,0
2022-10-11T03:03:08.623Z,0
2022-10-11T03:04:09.615Z,0
2022-10-11T03:05:10.619Z,0
2022-10-11T03:06:11.556Z,0
2022-10-11T03:07:12.554Z,0
2022-10-11T03:08:13.525Z,0
2022-10-11T03:09:14.634Z,0
2022-10-11T03:10:15.534Z,0
2022-10-11T03:11:16.559Z,0
2022-10-11T03:12:17.535Z,0
2022-10-11T03:13:18.695Z,0
2022-10-11T03:14:19.514Z,0
2022-10-11T03:15:20.500Z,0
2022-10-11T03:16:21.654Z,0
2022-10-11T03:17:37.252Z,0
2022-10-11T03:18:24.536Z,0
2022-10-11T03:19:25.536Z,0
2022-10-11T03:20:26.580Z,0
2022-10-11T03:21:27.639Z,0
2022-10-11T03:22:28.635Z,0
2022-10-11T03:23:30.735Z,0
2022-10-11T03:24:32.554Z,0
2022-10-11T03:25:33.576Z,0
2022-10-11T03:26:34.615Z,0
2022-10-11T03:27:35.499Z,0
2022-10-11T03:28:36.655Z,0
2022-10-11T03:29:37.574Z,0
2022-10-11T03:30:38.657Z,0
2022-10-11T03:31:39.662Z,0
2022-10-11T03:32:40.595Z,0
2022-10-11T03:33:41.594Z,0
2022-10-11T03:34:42.654Z,0
2022-10-11T03:35:44.721Z,0
2022-10-11T03:36:46.735Z,0
2022-10-11T03:37:48.653Z,0
2022-10-11T03:38:50.694Z,0
2022-10-11T03:39:52.714Z,0
2022-10-11T03:40:54.575Z,0
2022-10-11T03:41:55.575Z,0
2022-10-11T03:42:56.654Z,0
2022-10-11T03:43:58.570Z,0
2022-10-11T03:44:59.739Z,0
2022-10-11T03:46:02.130Z,0
2022-10-11T03:47:03.797Z,0
2022-10-11T03:48:05.618Z,0
2022-10-11T03:49:06.595Z,0
2022-10-11T03:50:07.696Z,0
2022-10-11T03:51:08.677Z,0
2022-10-11T03:52:09.616Z,0
2022-10-11T03:53:10.636Z,0
2022-10-11T03:54:11.615Z,0
2022-10-11T03:55:12.634Z,0
2022-10-11T03:56:13.976Z,0
2022-10-11T03:57:14.655Z,0.25
2022-10-11T03:58:15.615Z,0
2022-10-11T03:59:16.814Z,0
2022-10-11T04:00:18.736Z,0
2022-10-11T04:01:20.849Z,0
2022-10-11T04:02:22.643Z,0
2022-10-11T04:03:23.715Z,0
2022-10-11T04:04:25.758Z,0
2022-10-11T04:05:27.776Z,0
2022-10-11T04:06:29.759Z,0
2022-10-11T04:07:31.757Z,0
2022-10-11T04:08:33.535Z,0
2022-10-11T04:09:34.594Z,0
2022-10-11T04:10:35.655Z,0
2022-10-11T04:11:36.704Z,0
2022-10-11T04:12:38.636Z,0
2022-10-11T04:13:39.594Z,0
2022-10-11T04:14:40.613Z,0
2022-10-11T04:15:41.654Z,0
2022-10-11T04:16:42.595Z,0
2022-10-11T04:17:43.622Z,0
2022-10-11T04:18:44.555Z,0
2022-10-11T04:19:45.594Z,0
2022-10-11T04:20:46.623Z,0
2022-10-11T04:21:47.579Z,0
2022-10-11T04:22:48.574Z,0
2022-10-11T04:23:49.558Z,0
2022-10-11T04:24:50.635Z,0
2022-10-11T04:25:51.635Z,0
2022-10-11T04:26:52.635Z,0
2022-10-11T04:27:53.676Z,0
2022-10-11T04:28:54.761Z,0
2022-10-11T04:29:56.821Z,0
2022-10-11T04:30:58.727Z,0
2022-10-11T04:32:00.638Z,0
2022-10-11T04:33:01.695Z,0.4
2022-10-11T04:34:02.624Z,0
2022-10-11T04:35:04.796Z,0
2022-10-11T04:36:04.868Z,0
2022-10-11T04:37:05.760Z,0
2022-10-11T04:38:07.677Z,0
2022-10-11T04:39:08.634Z,0
2022-10-11T04:40:09.695Z,0
2022-10-11T04:41:10.652Z,0
2022-10-11T04:42:11.634Z,0
2022-10-11T04:43:12.662Z,0
2022-10-11T04:44:13.635Z,0
2022-10-11T04:45:14.614Z,0
2022-10-11T04:46:15.605Z,0
2022-10-11T04:47:16.875Z,0
2022-10-11T04:48:18.675Z,0
2022-10-11T04:49:19.586Z,0
2022-10-11T04:50:20.576Z,0
2022-10-11T04:51:21.634Z,0
2022-10-11T04:52:25.652Z,0
2022-10-11T04:53:23.642Z,0
2022-10-11T04:54:24.638Z,0
2022-10-11T04:55:25.699Z,0
2022-10-11T04:56:26.614Z,0
2022-10-11T04:57:27.643Z,0
2022-10-11T04:58:28.564Z,0.14
2022-10-11T04:59:29.758Z,0
2022-10-11T05:00:31.815Z,0
2022-10-11T05:01:33.863Z,0
2022-10-11T05:02:35.598Z,0
2022-10-11T05:03:36.856Z,0
2022-10-11T05:04:38.854Z,0
2022-10-11T05:05:40.595Z,0
2022-10-11T05:06:41.583Z,0
2022-10-11T05:07:42.670Z,0
2022-10-11T05:08:43.634Z,0
2022-10-11T05:09:44.715Z,0
2022-10-11T05:10:46.792Z,0.57
2022-10-11T05:11:48.656Z,0
2022-10-11T05:12:49.635Z,0
2022-10-11T05:13:50.675Z,0
2022-10-11T05:14:51.695Z,0
2022-10-11T05:15:52.675Z,0
2022-10-11T05:16:53.675Z,0
2022-10-11T05:17:54.719Z,0
2022-10-11T05:18:56.796Z,0
2022-10-11T05:19:58.695Z,0
2022-10-11T05:21:00.636Z,0
2022-10-11T05:22:01.715Z,0
2022-10-11T05:23:02.656Z,0.15
2022-10-11T05:24:03.660Z,0
2022-10-11T05:25:04.738Z,0
2022-10-11T05:26:05.936Z,0.45
2022-10-11T05:27:06.717Z,0
2022-10-11T05:28:07.768Z,0
2022-10-11T05:29:08.798Z,0
2022-10-11T05:30:10.696Z,0
2022-10-11T05:31:11.778Z,0
2022-10-11T05:32:13.774Z,0
2022-10-11T05:33:15.883Z,0
2022-10-11T05:34:17.695Z,0.21
2022-10-11T05:35:18.695Z,0
2022-10-11T05:36:19.617Z,0
2022-10-11T05:37:20.717Z,0
2022-10-11T05:38:21.740Z,0
2022-10-11T05:39:22.775Z,0
2022-10-11T05:40:24.636Z,0
2022-10-11T05:41:25.595Z,0.6
2022-10-11T05:42:26.663Z,0.09
2022-10-11T05:43:27.662Z,0
2022-10-11T05:44:28.703Z,0
2022-10-11T05:45:29.616Z,0.06
2022-10-11T05:46:30.694Z,0.09
2022-10-11T05:47:31.695Z,0.08
2022-10-11T05:48:32.615Z,0.23
2022-10-11T05:49:33.690Z,0.11
2022-10-11T05:50:34.755Z,0.06
2022-10-11T05:51:36.676Z,0
2022-10-11T05:52:37.655Z,0.15
2022-10-11T05:53:38.803Z,0
2022-10-11T05:54:40.563Z,0
2022-10-11T05:55:41.677Z,0
2022-10-11T05:56:42.724Z,0
2022-10-11T05:57:43.708Z,0
2022-10-11T05:58:45.732Z,0
2022-10-11T05:59:47.695Z,0.06
2022-10-11T06:00:48.694Z,0.33
2022-10-11T06:01:49.560Z,0
2022-10-11T06:02:50.696Z,0
2022-10-11T06:03:51.635Z,0.08
2022-10-11T06:04:52.714Z,0.14
2022-10-11T06:05:56.885Z,0.21
2022-10-11T06:06:54.657Z,0.27
2022-10-11T06:07:55.683Z,0.19
2022-10-11T06:08:56.680Z,0.58
2022-10-11T06:09:57.670Z,0.17
2022-10-11T06:10:58.636Z,0.04
2022-10-11T06:11:59.635Z,0.18
2022-10-11T06:13:00.716Z,0.23
2022-10-11T06:14:01.816Z,0
2022-10-11T06:15:03.694Z,0
2022-10-11T06:16:04.955Z,0
2022-10-11T06:17:05.637Z,0
2022-10-11T06:18:06.717Z,0.35
2022-10-11T06:19:07.723Z,0.37
2022-10-11T06:20:08.740Z,0
2022-10-11T06:21:09.617Z,0
2022-10-11T06:22:10.655Z,0
2022-10-11T06:23:11.674Z,0.45
2022-10-11T06:24:12.808Z,0.25
2022-10-11T06:25:13.671Z,0.24
2022-10-11T06:26:14.714Z,0.26
2022-10-11T06:27:16.814Z,0.26
2022-10-11T06:28:18.840Z,0
2022-10-11T06:29:19.754Z,0
2022-10-11T06:30:20.675Z,0.05
2022-10-11T06:31:21.725Z,0.18
2022-10-11T06:32:22.716Z,0.26
2022-10-11T06:33:23.714Z,0.17
2022-10-11T06:34:24.735Z,0.6
2022-10-11T06:35:25.685Z,0.21
2022-10-11T06:36:26.694Z,0.23
2022-10-11T06:37:27.724Z,0.19
2022-10-11T06:38:28.664Z,0.16
2022-10-11T06:39:29.677Z,0
2022-10-11T06:40:30.783Z,0.25
2022-10-11T06:41:32.755Z,0
2022-10-11T06:42:33.655Z,0.22
2022-10-11T06:43:34.675Z,0.15
2022-10-11T06:44:35.675Z,0.19
2022-10-11T06:45:36.695Z,0.29
2022-10-11T06:46:37.715Z,0.32
2022-10-11T06:47:38.735Z,0.11
2022-10-11T06:48:39.695Z,0.93
2022-10-11T06:49:40.735Z,0.26
2022-10-11T06:50:58.926Z,0
2022-10-11T06:51:42.755Z,0
2022-10-11T06:52:43.683Z,0
2022-10-11T06:53:44.657Z,0.96
2022-10-11T06:54:45.830Z,0.08
2022-10-11T06:55:47.636Z,0.07
2022-10-11T06:56:48.677Z,0.41
2022-10-11T06:57:49.775Z,0.15
2022-10-11T06:58:50.732Z,0.14
2022-10-11T06:59:51.775Z,0.16
2022-10-11T07:00:52.713Z,0.4
2022-10-11T07:01:53.643Z,0.11
2022-10-11T07:02:54.734Z,0.18
2022-10-11T07:03:55.715Z,0.2
2022-10-11T07:04:56.695Z,0.57
2022-10-11T07:06:01.525Z,0.39
2022-10-11T07:06:58.803Z,0.2
2022-10-11T07:08:00.814Z,0.22
2022-10-11T07:09:02.743Z,0.36
2022-10-11T07:10:03.839Z,0.09
2022-10-11T07:11:05.736Z,0.25
2022-10-11T07:12:06.703Z,0.53
2022-10-11T07:13:07.642Z,0.26
2022-10-11T07:14:08.695Z,0.36
2022-10-11T07:15:09.814Z,0.07
2022-10-11T07:16:11.815Z,0.16
2022-10-11T07:17:13.743Z,0.17
2022-10-11T07:18:14.715Z,0.51
2022-10-11T07:19:15.875Z,0.84
2022-10-11T07:20:17.954Z,0.18
2022-10-11T07:21:19.738Z,0.04
2022-10-11T07:22:20.723Z,0.19
2022-10-11T07:23:21.754Z,0.22
2022-10-11T07:24:22.748Z,0.06
2022-10-11T07:25:23.726Z,0.16
2022-10-11T07:26:24.843Z,0.29
2022-10-11T07:27:26.714Z,0.33
2022-10-11T07:28:27.889Z,0.78
2022-10-11T07:29:29.695Z,0.19
2022-10-11T07:30:30.734Z,0.57
2022-10-11T07:31:31.797Z,0.87
2022-10-11T07:32:32.736Z,0.2
2022-10-11T07:33:33.736Z,0.17
2022-10-11T07:34:34.775Z,0.37
2022-10-11T07:35:35.776Z,0.28
2022-10-11T07:36:36.719Z,0.13
2022-10-11T07:37:37.720Z,0.41
2022-10-11T07:38:38.755Z,0.25
2022-10-11T07:39:39.797Z,0.15
2022-10-11T07:40:40.829Z,1.08
2022-10-11T07:41:45.796Z,0.62
2022-10-11T07:42:45.015Z,0.12
2022-10-11T07:43:46.954Z,0.35
2022-10-11T07:44:50.178Z,0.41
2022-10-11T07:45:52.440Z,0.6
2022-10-11T07:46:53.877Z,0.14
2022-10-11T07:47:55.914Z,0.4
2022-10-11T07:48:57.873Z,0.4
2022-10-11T07:50:00.961Z,0.1
2022-10-11T07:51:03.054Z,0.18
2022-10-11T07:52:04.838Z,0.55
2022-10-11T07:53:06.914Z,0.32
2022-10-11T07:54:08.923Z,0.81
2022-10-11T07:55:10.874Z,0.13
2022-10-11T07:56:12.839Z,0
2022-10-11T07:57:14.821Z,0.43
2022-10-11T07:58:15.695Z,0.47
2022-10-11T07:59:16.714Z,0.16
2022-10-11T08:00:17.757Z,0
2022-10-11T08:01:18.841Z,0.05
2022-10-11T08:02:19.714Z,0.13
2022-10-11T08:03:20.734Z,0.22
2022-10-11T08:04:21.755Z,0.3
2022-10-11T08:05:22.895Z,0.06
2022-10-11T08:06:24.686Z,0.14
2022-10-11T08:07:25.734Z,0.17
2022-10-11T08:08:27.043Z,0.54
2022-10-11T08:09:28.791Z,0.65
2022-10-11T08:10:29.795Z,0.52
2022-10-11T08:11:30.937Z,0.77
2022-10-11T08:12:32.934Z,0.27
2022-10-11T08:13:34.796Z,0
2022-10-11T08:14:35.783Z,0.12
2022-10-11T08:15:36.775Z,0.29
2022-10-11T08:16:37.834Z,0.43
2022-10-11T08:17:39.822Z,0.28
2022-10-11T08:18:41.794Z,0.28
2022-10-11T08:19:42.896Z,0.2
2022-10-11T08:20:45.036Z,0.15
2022-10-11T08:21:46.864Z,0.27
2022-10-11T08:22:48.755Z,0.58
2022-10-11T08:23:49.670Z,0.35
2022-10-11T08:24:50.757Z,0.66
2022-10-11T08:25:51.778Z,0.37
2022-10-11T08:26:52.807Z,0.66
2022-10-11T08:27:53.803Z,0.28
2022-10-11T08:28:54.820Z,0.35
2022-10-11T08:29:55.823Z,0.34
2022-10-11T08:30:56.781Z,0.35
2022-10-11T08:31:57.676Z,0.13
2022-10-11T08:32:58.775Z,0.12
2022-10-11T08:33:59.715Z,0.24
2022-10-11T08:35:00.905Z,0.25
2022-10-11T08:36:03.266Z,0.09
2022-10-11T08:37:03.734Z,0.64
2022-10-11T08:38:04.814Z,0.38
2022-10-11T08:39:05.818Z,0.37
2022-10-11T08:40:06.854Z,0.14
2022-10-11T08:41:08.889Z,0
2022-10-11T08:42:10.865Z,0.53
2022-10-11T08:43:12.943Z,0.41
2022-10-11T08:44:14.895Z,0.22
2022-10-11T08:45:16.795Z,0.19
2022-10-11T08:46:17.714Z,0.3
2022-10-11T08:47:18.735Z,0.38
2022-10-11T08:48:19.821Z,0.44
2022-10-11T08:49:21.174Z,0.44
2022-10-11T08:50:22.824Z,0.33
2022-10-11T08:51:23.779Z,0.3
2022-10-11T08:52:24.824Z,0.31
2022-10-11T08:53:25.836Z,0.32
2022-10-11T08:54:26.799Z,0.72
2022-10-11T08:55:27.834Z,0.55
2022-10-11T08:56:28.795Z,0.32
2022-10-11T08:57:29.886Z,0.53
2022-10-11T08:58:32.055Z,0.13
2022-10-11T08:59:33.835Z,0.56
2022-10-11T09:00:34.814Z,0.51
2022-10-11T09:01:35.855Z,0.14
2022-10-11T09:02:56.009Z,0.39
2022-10-11T09:03:39.023Z,0.37
2022-10-11T09:04:40.774Z,0.07
2022-10-11T09:05:41.777Z,0.81
2022-10-11T09:06:42.843Z,0.28
2022-10-11T09:07:44.934Z,0.11
2022-10-11T09:08:47.075Z,0.52
2022-10-11T09:09:48.858Z,0.43
2022-10-11T09:10:49.794Z,0.17
2022-10-11T09:11:50.894Z,0.52
2022-10-11T09:12:52.854Z,0.46
2022-10-11T09:13:53.832Z,0.2
2022-10-11T09:14:54.814Z,0.65
2022-10-11T09:15:55.762Z,0.15
2022-10-11T09:16:56.861Z,0.27
2022-10-11T09:17:57.805Z,0.85
2022-10-11T09:18:58.854Z,0.64
2022-10-11T09:20:00.833Z,0.53
2022-10-11T09:21:02.896Z,0.5
2022-10-11T09:22:05.115Z,0.76
2022-10-11T09:23:06.734Z,0.34
2022-10-11T09:24:07.810Z,0.59
2022-10-11T09:25:08.754Z,1.12
2022-10-11T09:26:09.923Z,0.74
2022-10-11T09:27:10.754Z,0.42
2022-10-11T09:28:11.960Z,0.27
2022-10-11T09:29:12.775Z,0.78
2022-10-11T09:30:13.850Z,0.62
2022-10-11T09:31:14.778Z,0.5
2022-10-11T09:32:15.838Z,0.36
2022-10-11T09:33:16.856Z,0.16
2022-10-11T09:34:17.735Z,0.2
2022-10-11T09:35:18.754Z,0.52
2022-10-11T09:36:19.723Z,0.81
2022-10-11T09:37:20.758Z,0.71
2022-10-11T09:38:22.796Z,0.81
2022-10-11T09:39:23.873Z,0.64
2022-10-11T09:40:25.883Z,0.36
2022-10-11T09:41:27.918Z,0
2022-10-11T09:42:29.782Z,0.13
2022-10-11T09:43:30.797Z,0.09
2022-10-11T09:44:31.734Z,0.2
2022-10-11T09:45:32.839Z,0.56
2022-10-11T09:46:33.775Z,0.53
2022-10-11T09:47:34.777Z,1.04
2022-10-11T09:48:35.860Z,0.56
2022-10-11T09:49:37.774Z,0.43
2022-10-11T09:50:38.815Z,0.5
2022-10-11T09:51:39.815Z,0.66
2022-10-11T09:52:40.877Z,0.36
2022-10-11T09:53:43.096Z,0.06
2022-10-11T09:54:44.885Z,0.43
2022-10-11T09:55:46.895Z,0.58
2022-10-11T09:56:48.842Z,0
2022-10-11T09:57:49.775Z,0.2
2022-10-11T09:58:50.879Z,0.14
2022-10-11T09:59:51.775Z,0
2022-10-11T10:00:52.875Z,0.26
2022-10-11T10:01:53.953Z,0.13
2022-10-11T10:02:54.822Z,0.38
2022-10-11T10:03:55.815Z,0.24
2022-10-11T10:04:56.815Z,0.93
2022-10-11T10:05:57.835Z,0.54
2022-10-11T10:06:58.882Z,0.26
2022-10-11T10:08:04.212Z,0.46
2022-10-11T10:09:00.770Z,0.25
2022-10-11T10:10:01.874Z,0.34
2022-10-11T10:11:03.758Z,0.85
2022-10-11T10:12:04.875Z,1.6
2022-10-11T10:13:05.836Z,1.96
2022-10-11T10:14:06.878Z,1.66
2022-10-11T10:15:07.815Z,0.77
2022-10-11T10:16:09.307Z,0.57
2022-10-11T10:17:10.813Z,0.1
2022-10-11T10:18:11.853Z,0.31
2022-10-11T10:19:13.995Z,0.35
2022-10-11T10:20:15.882Z,0.28
2022-10-11T10:21:17.935Z,0.11
2022-10-11T10:22:19.894Z,0.4
2022-10-11T10:23:21.954Z,0.23
2022-10-11T10:24:24.015Z,0.63
2022-10-11T10:25:25.857Z,0.54
2022-10-11T10:26:26.862Z,0.06
2022-10-11T10:27:27.835Z,0.27
2022-10-11T10:28:28.892Z,0.33
2022-10-11T10:29:29.817Z,0.58
2022-10-11T10:30:35.317Z,0.11
2022-10-11T10:31:44.360Z,0.4
2022-10-11T10:32:34.815Z,0.18
2022-10-11T10:33:35.875Z,0.09
2022-10-11T10:34:36.914Z,0.52
2022-10-11T10:35:38.942Z,0.2
2022-10-11T10:36:40.858Z,0.31
2022-10-11T10:37:41.787Z,0
2022-10-11T10:38:42.818Z,0.11
2022-10-11T10:39:43.794Z,0.08
2022-10-11T10:40:44.865Z,0.35
2022-10-11T10:41:45.780Z,0.09
2022-10-11T10:42:46.897Z,0
2022-10-11T10:43:47.814Z,0.14
2022-10-11T10:44:48.822Z,0.16
2022-10-11T10:45:49.828Z,0.22
2022-10-11T10:46:50.821Z,0.16
2022-10-11T10:47:51.835Z,0.3
2022-10-11T10:49:55.259Z,0.57
2022-10-11T10:50:55.815Z,0.14
2022-10-11T10:51:56.834Z,0.43
2022-10-11T10:52:57.835Z,0.18
2022-10-11T10:53:58.927Z,0
2022-10-11T10:55:00.926Z,0
2022-10-11T10:56:03.334Z,0
2022-10-11T10:57:05.003Z,0.37
2022-10-11T10:58:06.835Z,1.13
2022-10-11T10:59:07.894Z,0.34
2022-10-11T11:00:09.001Z,0.13
2022-10-11T11:01:10.982Z,0.19
2022-10-11T11:02:35.284Z,0.36
2022-10-11T11:03:13.811Z,0.3
2022-10-11T11:04:14.849Z,0.2
2022-10-11T11:05:15.859Z,0.14
2022-10-11T11:06:16.975Z,0.15
2022-10-11T11:07:19.365Z,0.12
2022-10-11T11:08:20.935Z,1.31
2022-10-11T11:09:22.835Z,0.18
2022-10-11T11:10:23.874Z,0.11
2022-10-11T11:11:24.902Z,0.9
2022-10-11T11:12:25.805Z,0.18
2022-10-11T11:13:26.875Z,0.2
2022-10-11T11:14:27.794Z,0.13
2022-10-11T11:15:32.452Z,0.37
2022-10-11T11:16:30.922Z,0.44
2022-10-11T11:17:31.962Z,0.48
2022-10-11T11:18:33.957Z,0.71
2022-10-11T11:19:35.854Z,0
2022-10-11T11:20:36.837Z,0.17
2022-10-11T11:21:41.309Z,0.26
2022-10-11T11:22:38.737Z,0.78
2022-10-11T11:23:39.815Z,1.11
2022-10-11T11:24:40.824Z,0.18
2022-10-11T11:25:44.804Z,0.26
2022-10-11T11:26:44.369Z,0.5
2022-10-11T11:27:43.736Z,0.11
2022-10-11T11:28:45.098Z,0.29
2022-10-11T11:29:45.982Z,0.13
2022-10-11T11:30:47.941Z,0.35
2022-10-11T11:31:49.826Z,0.25
2022-10-11T11:32:50.917Z,0
2022-10-11T11:33:51.795Z,0.18
2022-10-11T11:34:52.834Z,0.2
2022-10-11T11:35:53.836Z,0.17
2022-10-11T11:36:54.905Z,0.37
2022-10-11T11:38:00.280Z,0.38
2022-10-11T11:38:57.494Z,0.22
2022-10-11T11:39:58.874Z,0.3
2022-10-11T11:40:59.850Z,0.39
2022-10-11T11:42:00.854Z,0.24
2022-10-11T11:43:01.911Z,0.73
2022-10-11T11:44:02.935Z,0.61
2022-10-11T11:45:03.894Z,0.5
2022-10-11T11:46:04.837Z,0.85
2022-10-11T11:47:05.854Z,0.71
2022-10-11T11:48:06.895Z,0.59
2022-10-11T11:49:12.186Z,0.34
2022-10-11T11:50:09.935Z,0.72
2022-10-11T11:51:10.887Z,0.66
2022-10-11T11:52:11.924Z,1.31
2022-10-11T11:53:12.974Z,0.63
2022-10-11T11:54:14.857Z,1.04
2022-10-11T11:55:15.937Z,0.56
2022-10-11T11:56:16.839Z,0.26
2022-10-11T11:57:18.317Z,0.13
2022-10-11T11:58:19.856Z,0.31
2022-10-11T11:59:20.900Z,0.24
2022-10-11T12:00:21.925Z,0
2022-10-11T12:01:24.739Z,0.13
2022-10-11T12:02:25.115Z,0.63
2022-10-11T12:03:26.862Z,0.57
2022-10-11T12:04:27.795Z,0.54
2022-10-11T12:05:28.928Z,0.74
2022-10-11T12:06:29.916Z,0.98
2022-10-11T12:07:30.875Z,1.47
2022-10-11T12:08:31.894Z,0.69
2022-10-11T12:09:32.934Z,0.52
2022-10-11T12:10:34.074Z,0.57
2022-10-11T12:11:35.877Z,0.68
2022-10-11T12:12:36.752Z,0.38
2022-10-11T12:13:37.855Z,0.52
2022-10-11T12:14:38.834Z,0.78
2022-10-11T12:15:39.883Z,0.39
2022-10-11T12:16:43.394Z,0.55
2022-10-11T12:17:44.956Z,0.4
2022-10-11T12:18:45.899Z,0.53
2022-10-11T12:19:46.983Z,0.51
2022-10-11T12:20:48.855Z,0.47
2022-10-11T12:21:49.916Z,1.01
2022-10-11T12:22:50.875Z,0.81
2022-10-11T12:23:51.835Z,0.75
2022-10-11T12:24:52.883Z,0.65
2022-10-11T12:25:53.875Z,0.33
2022-10-11T12:26:54.815Z,0.38
2022-10-11T12:27:55.975Z,0.77
2022-10-11T12:28:56.915Z,0.59
2022-10-11T12:29:57.863Z,1.22
2022-10-11T12:30:58.936Z,0.33
2022-10-11T12:31:59.935Z,0.11
2022-10-11T12:33:00.895Z,0.14
2022-10-11T12:34:01.921Z,0.34
2022-10-11T12:35:02.859Z,0.26
2022-10-11T12:36:05.625Z,1.07
2022-10-11T12:37:06.742Z,1.06
2022-10-11T12:38:05.983Z,1.37
2022-10-11T12:39:06.916Z,0.17
2022-10-11T12:40:07.925Z,0.36
2022-10-11T12:41:08.945Z,0.67
2022-10-11T12:42:09.917Z,0.17
2022-10-11T12:43:10.915Z,0.45
2022-10-11T12:44:11.821Z,0.32
2022-10-11T12:45:12.983Z,0.3
2022-10-11T12:46:14.893Z,0.31
2022-10-11T12:47:16.050Z,0.69
2022-10-11T12:48:18.014Z,0.62
2022-10-11T12:49:19.895Z,0.18
2022-10-11T12:50:21.016Z,0.23
2022-10-11T12:51:23.050Z,0.6
2022-10-11T12:52:24.982Z,0.37
2022-10-11T12:53:25.912Z,0.24
2022-10-11T12:54:29.909Z,0.31
2022-10-11T12:55:27.857Z,0.41
2022-10-11T12:56:28.827Z,0.5
2022-10-11T12:57:29.894Z,0.26
2022-10-11T12:58:30.914Z,0.71
2022-10-11T12:59:31.897Z,0.19
2022-10-11T13:00:32.883Z,0.13
2022-10-11T13:01:34.065Z,0.21
2022-10-11T13:02:35.027Z,0.19
2022-10-11T13:03:36.896Z,0.6
2022-10-11T13:04:37.915Z,0.38
2022-10-11T13:05:41.977Z,0.49
2022-10-11T13:06:39.915Z,0.34
2022-10-11T13:07:40.955Z,0.8
2022-10-11T13:08:41.883Z,0.44
2022-10-11T13:09:46.712Z,0.32
2022-10-11T13:10:44.014Z,0.42
2022-10-11T13:11:46.015Z,0.26
2022-10-11T13:12:48.078Z,0.36
2022-10-11T13:13:49.915Z,0.18
2022-10-11T13:14:51.010Z,0.19
2022-10-11T13:15:51.930Z,0.45
2022-10-11T13:16:52.896Z,0.09
2022-10-11T13:17:53.939Z,0.1
2022-10-11T13:18:54.955Z,0.73
2022-10-11T13:19:55.984Z,1.75
2022-10-11T13:20:57.799Z,1.07
2022-10-11T13:21:58.929Z,0.68
2022-10-11T13:23:00.004Z,0.72
2022-10-11T13:24:02.035Z,0.64
2022-10-11T13:25:04.115Z,0.09
2022-10-11T13:26:06.412Z,0.65
2022-10-11T13:27:07.954Z,0.79
2022-10-11T13:28:09.956Z,0.8
2022-10-11T13:29:10.926Z,0.98
2022-10-11T13:30:12.017Z,1.33
2022-10-11T13:31:14.139Z,0.3
2022-10-11T13:32:16.014Z,0.52
2022-10-11T13:33:18.039Z,0.19
2022-10-11T13:34:23.279Z,0.35
2022-10-11T13:35:23.773Z,0.25
2022-10-11T13:36:24.105Z,0.21
2022-10-11T13:37:26.096Z,0.2
2022-10-11T13:38:27.899Z,0.31
2022-10-11T13:39:30.875Z,0.46
2022-10-11T13:40:29.892Z,0.11
2022-10-11T13:41:30.975Z,0.14
2022-10-11T13:42:31.902Z,0.51
2022-10-11T13:43:33.074Z,0.11
2022-10-11T13:44:35.175Z,0.28
2022-10-11T13:45:36.918Z,0.25
2022-10-11T13:46:37.984Z,0.66
2022-10-11T13:47:39.036Z,0.2
2022-10-11T13:48:39.995Z,0.41
2022-10-11T13:49:40.975Z,0.27
2022-10-11T13:50:41.876Z,0.07
2022-10-11T13:51:42.978Z,0.38
2022-10-11T13:52:43.999Z,0
2022-10-11T13:53:44.934Z,0.23
2022-10-11T13:54:45.875Z,0.26
2022-10-11T13:55:46.931Z,0.36
2022-10-11T13:56:49.075Z,0.54
2022-10-11T13:57:51.036Z,0.33
2022-10-11T13:58:52.976Z,0.57
2022-10-11T13:59:53.923Z,0.56
2022-10-11T14:00:54.917Z,0.11
2022-10-11T14:01:56.150Z,0.44
2022-10-11T14:02:58.115Z,0.11
2022-10-11T14:04:00.100Z,0.13
2022-10-11T14:05:01.919Z,0.2
2022-10-11T14:06:03.461Z,0.08
2022-10-11T14:07:04.978Z,0.49
2022-10-11T14:08:05.996Z,0.23
2022-10-11T14:09:08.186Z,0.14
2022-10-11T14:10:09.924Z,0.29
2022-10-11T14:11:10.952Z,0.25
2022-10-11T14:12:11.964Z,0.19